Eagar, Arizona
Current Conditions -  °F | °C
As of 3:35 PM on Sunday 23 Nov 2014 (Local Time) from KJTC Reporting Station
Clear Clear  
Wind Chill: 27°   Ceiling: Unl
Heat Index: 39°   Visibility: 10mi
Dew Point: -4°   Wind: 30mph
Humidity: 16%   Direction: 320°NW
Pressure: 30.08"   Gusts: 37mph
Location:  34.11°N, 109.29°W
Report Text: KJTC 232235Z AUTO 32026G32KT 10SM CLR 04/M20 A3008 RMK AO2
Loading
Personal Weather Stations






























Interactive Weather Map New forecast layout! Learn more

10-Day Weather Forecast

Advertisements
Track Severe Weather on mobile